createdAt,value
2023-01-19T00:00:46.851Z,98018.03
2023-01-19T00:03:27.085Z,98013.72
2023-01-19T00:05:54.735Z,98022.72
2023-01-19T00:08:21.970Z,98018.72
2023-01-19T00:10:53.913Z,98021.88
2023-01-19T00:13:21.500Z,98009.47
2023-01-19T00:15:48.960Z,98032.22
2023-01-19T00:18:16.301Z,98031.19
2023-01-19T00:20:46.470Z,98016.97
2023-01-19T00:23:14.544Z,98033.06
2023-01-19T00:25:42.786Z,98031.31
2023-01-19T00:28:15.752Z,98026.72
2023-01-19T00:30:43.828Z,98008.47
2023-01-19T00:33:32.462Z,98004.00
2023-01-19T00:35:59.946Z,98010.44
2023-01-19T00:38:27.475Z,98019.00
2023-01-19T00:40:56.163Z,98028.94
2023-01-19T00:43:23.738Z,98024.91
2023-01-19T00:45:51.578Z,98028.09
2023-01-19T00:48:20.815Z,98003.41
2023-01-19T00:50:49.777Z,98015.56
2023-01-19T00:53:17.150Z,98011.78
2023-01-19T00:55:44.987Z,98028.75
2023-01-19T00:58:16.793Z,98030.94
2023-01-19T01:00:44.933Z,98033.81
2023-01-19T01:03:12.241Z,98017.03
2023-01-19T01:05:45.030Z,98021.97
2023-01-19T01:08:13.351Z,98016.31
2023-01-19T01:10:40.800Z,98020.53
2023-01-19T01:13:22.879Z,98001.94
2023-01-19T01:15:53.466Z,98010.94
2023-01-19T01:18:21.748Z,98006.03
2023-01-19T01:20:50.289Z,98002.22
2023-01-19T01:23:22.778Z,98006.16
2023-01-19T01:25:50.774Z,98018.59
2023-01-19T01:28:18.271Z,98054.13
2023-01-19T01:30:45.755Z,98036.66
2023-01-19T01:33:13.452Z,98047.59
2023-01-19T01:35:41.217Z,98046.03
2023-01-19T01:38:09.541Z,98039.56
2023-01-19T01:40:40.699Z,98029.22
2023-01-19T01:43:16.711Z,98028.41
2023-01-19T01:45:44.896Z,98032.81
2023-01-19T01:48:18.071Z,98021.16
2023-01-19T01:51:09.958Z,98006.44
2023-01-19T01:53:39.087Z,98012.09
2023-01-19T01:56:12.489Z,98023.88
2023-01-19T01:58:40.483Z,98033.56
2023-01-19T02:01:29.220Z,98032.41
2023-01-19T02:03:58.788Z,98018.50
2023-01-19T02:06:26.767Z,98021.88
2023-01-19T02:09:22.236Z,98055.66
2023-01-19T02:12:09.529Z,98048.53
2023-01-19T02:14:39.450Z,98034.63
2023-01-19T02:17:07.827Z,98049.03
2023-01-19T02:19:42.299Z,98049.28
2023-01-19T02:22:36.112Z,98047.38
2023-01-19T02:25:05.382Z,98030.13
2023-01-19T02:27:33.665Z,98006.81
2023-01-19T02:30:03.802Z,98012.38
2023-01-19T02:32:31.331Z,98005.50
2023-01-19T02:34:58.842Z,98004.78
2023-01-19T02:37:30.243Z,97989.63
2023-01-19T02:40:01.952Z,98006.16
2023-01-19T02:42:43.852Z,97978.00
2023-01-19T02:45:14.604Z,97978.31
2023-01-19T02:47:50.293Z,97983.47
2023-01-19T02:50:50.773Z,98004.75
2023-01-19T02:53:42.383Z,98023.56
2023-01-19T02:56:30.673Z,98033.88
2023-01-19T02:59:05.014Z,98023.41
2023-01-19T03:01:39.093Z,98031.50
2023-01-19T03:04:07.237Z,98037.81
2023-01-19T03:07:09.239Z,98024.91
2023-01-19T03:09:48.884Z,98027.09
2023-01-19T03:12:36.269Z,98012.13
2023-01-19T03:15:17.925Z,98029.00
2023-01-19T03:17:48.735Z,98041.84
2023-01-19T03:20:24.856Z,98036.34
2023-01-19T03:22:59.514Z,98028.41
2023-01-19T03:25:31.553Z,98042.00
2023-01-19T03:27:59.186Z,98043.31
2023-01-19T03:30:33.003Z,98039.16
2023-01-19T03:33:07.389Z,98037.00
2023-01-19T03:35:36.781Z,98011.28
2023-01-19T03:38:08.962Z,98006.06
2023-01-19T03:40:37.018Z,98000.16
2023-01-19T03:43:06.055Z,97972.47
2023-01-19T03:45:37.080Z,97961.38
2023-01-19T03:48:05.336Z,97945.97
2023-01-19T03:50:33.000Z,97989.69
2023-01-19T03:53:13.062Z,97995.53
2023-01-19T03:55:44.819Z,97999.78
2023-01-19T03:58:12.029Z,98007.16
2023-01-19T04:00:40.378Z,98010.56
2023-01-19T04:03:14.317Z,97997.22
2023-01-19T04:05:42.161Z,98019.72
2023-01-19T04:08:10.236Z,98030.91
2023-01-19T04:10:38.149Z,98042.56
2023-01-19T04:13:06.051Z,98075.41
2023-01-19T04:15:33.543Z,98065.22
2023-01-19T04:18:01.395Z,98064.41
2023-01-19T04:20:29.722Z,98067.91
2023-01-19T04:23:01.328Z,98069.06
2023-01-19T04:25:29.296Z,98070.88
2023-01-19T04:27:58.464Z,98051.13
2023-01-19T04:30:27.509Z,98059.72
2023-01-19T04:32:55.592Z,98068.41
2023-01-19T04:35:23.818Z,98056.22
2023-01-19T04:37:51.009Z,98069.56
2023-01-19T04:40:18.817Z,98079.53
2023-01-19T04:42:46.553Z,98076.56
2023-01-19T04:45:14.201Z,98083.44
2023-01-19T04:47:42.823Z,98069.97
2023-01-19T04:50:11.567Z,98073.72
2023-01-19T04:52:39.104Z,98071.72
2023-01-19T04:55:07.235Z,98069.66
2023-01-19T04:57:36.052Z,98069.91
2023-01-19T05:00:07.654Z,98044.09
2023-01-19T05:02:54.010Z,98062.28
2023-01-19T05:05:21.850Z,98056.41
2023-01-19T05:07:51.396Z,98038.25
2023-01-19T05:10:18.963Z,98054.03
2023-01-19T05:12:46.366Z,98040.69
2023-01-19T05:15:13.970Z,98016.06
2023-01-19T05:17:41.060Z,98017.59
2023-01-19T05:20:15.709Z,98043.19
2023-01-19T05:22:48.841Z,98045.47
2023-01-19T05:25:17.404Z,98039.16
2023-01-19T05:27:44.920Z,98060.84
2023-01-19T05:30:13.508Z,98045.28
2023-01-19T05:32:41.587Z,98081.38
2023-01-19T05:35:09.549Z,98068.59
2023-01-19T05:37:36.787Z,98082.09
2023-01-19T05:40:09.656Z,98091.47
2023-01-19T05:42:38.749Z,98103.91
2023-01-19T05:45:07.412Z,98100.47
2023-01-19T05:47:34.617Z,98089.69
2023-01-19T05:50:02.233Z,98096.84
2023-01-19T05:52:29.372Z,98094.63
2023-01-19T05:54:56.854Z,98112.44
2023-01-19T05:57:24.219Z,98099.78
2023-01-19T05:59:51.645Z,98115.84
2023-01-19T06:02:19.056Z,98104.47
2023-01-19T06:04:46.694Z,98119.97
2023-01-19T06:07:14.983Z,98098.25
2023-01-19T06:09:42.377Z,98089.25
2023-01-19T06:12:09.607Z,98075.78
2023-01-19T06:14:38.090Z,98086.91
2023-01-19T06:17:06.777Z,98070.94
2023-01-19T06:19:35.038Z,98072.72
2023-01-19T06:22:02.954Z,98079.63
2023-01-19T06:24:33.000Z,98069.19
2023-01-19T06:27:00.573Z,98068.03
2023-01-19T06:29:29.441Z,98047.75
2023-01-19T06:31:56.733Z,98067.91
2023-01-19T06:34:28.897Z,98053.59
2023-01-19T06:36:56.832Z,98059.22
2023-01-19T06:39:24.886Z,98074.25
2023-01-19T06:41:52.156Z,98085.88
2023-01-19T06:44:19.643Z,98079.75
2023-01-19T06:46:49.030Z,98082.44
2023-01-19T06:49:16.516Z,98077.75
2023-01-19T06:51:43.686Z,98078.22
2023-01-19T06:54:11.243Z,98097.44
2023-01-19T06:56:38.387Z,98099.06
2023-01-19T06:59:06.323Z,98085.16
2023-01-19T07:01:34.197Z,98104.25
2023-01-19T07:04:02.016Z,98099.91
2023-01-19T07:06:29.199Z,98111.25
2023-01-19T07:08:56.721Z,98150.56
2023-01-19T07:11:30.498Z,98136.94
2023-01-19T07:14:00.625Z,98158.63
2023-01-19T07:16:27.870Z,98141.16
2023-01-19T07:18:55.379Z,98140.94
2023-01-19T07:21:22.781Z,98151.94
2023-01-19T07:23:53.784Z,98139.28
2023-01-19T07:26:21.955Z,98143.75
2023-01-19T07:28:49.721Z,98143.38
2023-01-19T07:31:18.062Z,98131.78
2023-01-19T07:33:46.295Z,98135.66
2023-01-19T07:36:16.021Z,98132.34
2023-01-19T07:38:43.497Z,98148.56
2023-01-19T07:41:11.194Z,98141.50
2023-01-19T07:43:38.808Z,98143.38
2023-01-19T07:46:07.466Z,98148.78
2023-01-19T07:48:35.364Z,98147.94
2023-01-19T07:51:13.024Z,98144.28
2023-01-19T07:53:42.043Z,98159.31
2023-01-19T07:56:09.417Z,98154.25
2023-01-19T07:58:36.896Z,98147.53
2023-01-19T08:01:12.842Z,98139.66
2023-01-19T08:03:40.596Z,98144.19
2023-01-19T08:06:07.921Z,98154.03
2023-01-19T08:08:35.360Z,98146.03
2023-01-19T08:11:03.155Z,98135.22
2023-01-19T08:13:30.583Z,98140.19
2023-01-19T08:15:58.788Z,98139.09
2023-01-19T08:18:27.240Z,98131.03
2023-01-19T08:20:54.670Z,98122.09
2023-01-19T08:23:22.479Z,98141.75
2023-01-19T08:25:49.830Z,98135.94
2023-01-19T08:28:18.026Z,98126.84
2023-01-19T08:30:45.691Z,98138.72
2023-01-19T08:33:13.901Z,98127.97
2023-01-19T08:35:43.841Z,98145.53
2023-01-19T08:38:11.399Z,98142.16
2023-01-19T08:40:40.905Z,98143.22
2023-01-19T08:43:11.888Z,98152.47
2023-01-19T08:45:42.516Z,98150.66
2023-01-19T08:48:10.392Z,98147.00
2023-01-19T08:50:37.502Z,98151.78
2023-01-19T08:53:08.311Z,98168.09
2023-01-19T08:55:36.696Z,98168.00
2023-01-19T08:58:05.595Z,98193.56
2023-01-19T09:00:34.442Z,98192.78
2023-01-19T09:03:04.260Z,98202.06
2023-01-19T09:05:35.801Z,98202.13
2023-01-19T09:08:08.360Z,98204.47
2023-01-19T09:10:37.925Z,98216.16
2023-01-19T09:13:11.132Z,98213.44
2023-01-19T09:15:39.616Z,98211.91
2023-01-19T09:18:10.418Z,98211.28
2023-01-19T09:20:39.227Z,98201.06
2023-01-19T09:23:07.816Z,98205.28
2023-01-19T09:25:35.138Z,98209.66
2023-01-19T09:28:03.105Z,98197.34
2023-01-19T09:30:30.535Z,98210.13
2023-01-19T09:33:07.546Z,98209.47
2023-01-19T09:35:35.175Z,98206.44
2023-01-19T09:38:02.984Z,98214.56
2023-01-19T09:40:31.939Z,98207.97
2023-01-19T09:43:18.142Z,98207.22
2023-01-19T09:46:01.603Z,98211.22
2023-01-19T09:48:50.075Z,98216.25
2023-01-19T09:51:19.866Z,98203.19
2023-01-19T09:53:53.615Z,98203.63
2023-01-19T09:56:21.958Z,98192.41
2023-01-19T09:58:51.328Z,98195.19
2023-01-19T10:01:35.295Z,98207.69
2023-01-19T10:04:27.210Z,98226.75
2023-01-19T10:07:06.821Z,98205.59
2023-01-19T10:10:06.167Z,98217.81
2023-01-19T10:13:11.828Z,98234.28
2023-01-19T10:16:03.006Z,98236.25
2023-01-19T10:18:48.490Z,98244.22
2023-01-19T10:21:28.233Z,98221.44
2023-01-19T10:24:05.888Z,98223.41
2023-01-19T10:26:36.450Z,98221.28
2023-01-19T10:29:18.760Z,98202.19
2023-01-19T10:31:46.802Z,98218.63
2023-01-19T10:34:21.577Z,98211.94
2023-01-19T10:36:59.120Z,98204.53
2023-01-19T10:39:26.521Z,98212.63
2023-01-19T10:41:54.221Z,98213.41
2023-01-19T10:44:30.054Z,98206.44
2023-01-19T10:46:59.967Z,98256.56
2023-01-19T10:49:36.965Z,98250.50
2023-01-19T10:52:07.928Z,98243.03
2023-01-19T10:54:37.614Z,98248.00
2023-01-19T10:57:09.862Z,98266.34
2023-01-19T10:59:45.796Z,98240.28
2023-01-19T11:05:15.997Z,98255.19
2023-01-19T11:07:46.239Z,98244.00
2023-01-19T11:10:22.635Z,98247.59
2023-01-19T11:13:08.809Z,98242.91
2023-01-19T11:15:47.020Z,98263.75
2023-01-19T11:18:32.700Z,98257.47
2023-01-19T11:21:07.355Z,98258.53
2023-01-19T11:23:44.124Z,98276.66
2023-01-19T11:26:24.332Z,98264.91
2023-01-19T11:28:57.322Z,98282.63
2023-01-19T11:31:28.246Z,98282.78
2023-01-19T11:33:58.567Z,98285.22
2023-01-19T11:36:35.728Z,98288.16
2023-01-19T11:39:24.889Z,98287.97
2023-01-19T11:41:56.374Z,98274.09
2023-01-19T11:44:40.430Z,98297.94
2023-01-19T11:47:28.737Z,98293.50
2023-01-19T11:50:05.068Z,98299.41
2023-01-19T11:52:43.747Z,98294.75
2023-01-19T11:55:32.018Z,98296.06
2023-01-19T11:57:59.749Z,98315.56
2023-01-19T12:00:36.300Z,98319.16
2023-01-19T12:03:18.587Z,98319.91
2023-01-19T12:05:52.059Z,98317.38
2023-01-19T12:08:30.085Z,98324.72
2023-01-19T12:11:00.297Z,98343.41
2023-01-19T12:13:30.476Z,98356.41
2023-01-19T12:16:23.747Z,98366.13
2023-01-19T12:19:05.298Z,98381.03
2023-01-19T12:21:34.041Z,98388.34
2023-01-19T12:24:31.009Z,98427.59
2023-01-19T12:27:06.101Z,98451.25
2023-01-19T12:29:36.192Z,98443.31
2023-01-19T12:32:18.655Z,98468.31
2023-01-19T12:34:48.373Z,98467.03
2023-01-19T12:37:36.299Z,98453.13
2023-01-19T12:40:31.485Z,98476.44
2023-01-19T12:43:05.701Z,98486.59
2023-01-19T12:45:36.142Z,98484.38
2023-01-19T12:48:07.087Z,98492.47
2023-01-19T12:50:38.862Z,98470.75
2023-01-19T12:53:19.560Z,98467.34
2023-01-19T12:56:00.012Z,98471.28
2023-01-19T12:58:28.682Z,98488.78
2023-01-19T13:01:22.051Z,98493.44
2023-01-19T13:04:26.933Z,98492.47
2023-01-19T13:06:55.498Z,98482.72
2023-01-19T13:09:26.015Z,98498.56
2023-01-19T13:12:14.913Z,98511.03
2023-01-19T13:14:43.336Z,98510.22
2023-01-19T13:18:05.960Z,98524.22
2023-01-19T13:20:46.904Z,98529.72
2023-01-19T13:23:23.958Z,98525.34
2023-01-19T13:25:54.941Z,98529.59
2023-01-19T13:28:31.444Z,98517.22
2023-01-19T13:31:35.003Z,98512.44
2023-01-19T13:34:03.190Z,98513.75
2023-01-19T13:36:40.578Z,98516.09
2023-01-19T13:39:18.787Z,98508.06
2023-01-19T13:41:47.751Z,98532.28
2023-01-19T13:44:27.822Z,98548.25
2023-01-19T13:46:57.041Z,98537.56
2023-01-19T13:49:36.338Z,98541.25
2023-01-19T13:52:13.897Z,98553.09
2023-01-19T13:54:49.743Z,98574.81
2023-01-19T13:57:45.452Z,98587.28
2023-01-19T14:00:19.067Z,98595.22
2023-01-19T14:02:59.332Z,98589.25
2023-01-19T14:05:26.800Z,98570.72
2023-01-19T14:08:11.469Z,98551.59
2023-01-19T14:10:47.852Z,98595.44
2023-01-19T14:13:20.192Z,98600.59
2023-01-19T14:15:50.425Z,98615.03
2023-01-19T14:18:17.985Z,98609.72
2023-01-19T14:21:11.412Z,98621.44
2023-01-19T14:23:47.548Z,98627.22
2023-01-19T14:26:46.950Z,98635.13
2023-01-19T14:29:15.563Z,98631.34
2023-01-19T14:31:45.380Z,98645.03
2023-01-19T14:34:37.242Z,98641.16
2023-01-19T14:37:17.941Z,98635.63
2023-01-19T14:39:49.105Z,98614.31
2023-01-19T14:42:28.098Z,98642.88
2023-01-19T14:44:59.045Z,98649.84
2023-01-19T14:47:45.900Z,98670.97
2023-01-19T14:50:33.086Z,98658.16
2023-01-19T14:53:15.075Z,98671.41
2023-01-19T14:56:02.840Z,98689.81
2023-01-19T14:58:33.183Z,98681.09
2023-01-19T15:01:03.816Z,98710.69
2023-01-19T15:03:44.859Z,98721.03
2023-01-19T15:06:25.981Z,98718.94
2023-01-19T15:08:54.720Z,98720.41
2023-01-19T15:11:36.152Z,98716.88
2023-01-19T15:14:04.511Z,98734.66
2023-01-19T15:16:34.317Z,98741.69
2023-01-19T15:19:02.382Z,98752.03
2023-01-19T15:21:30.253Z,98763.81
2023-01-19T15:23:58.832Z,98751.16
2023-01-19T15:26:27.484Z,98756.97
2023-01-19T15:28:56.277Z,98761.13
2023-01-19T15:31:25.608Z,98758.81
2023-01-19T15:33:52.835Z,98766.19
2023-01-19T15:36:22.503Z,98775.06
2023-01-19T15:38:51.217Z,98780.97
2023-01-19T15:41:26.780Z,98801.00
2023-01-19T15:43:54.566Z,98792.25
2023-01-19T15:46:23.502Z,98794.06
2023-01-19T15:48:51.718Z,98794.38
2023-01-19T15:51:28.211Z,98820.38
2023-01-19T15:53:56.225Z,98821.50
2023-01-19T15:56:26.162Z,98832.88
2023-01-19T15:58:54.469Z,98820.78
2023-01-19T16:01:24.903Z,98817.09
2023-01-19T16:03:52.440Z,98828.06
2023-01-19T16:06:20.021Z,98821.78
2023-01-19T16:08:47.149Z,98814.97
2023-01-19T16:11:15.819Z,98818.91
2023-01-19T16:13:47.038Z,98825.28
2023-01-19T16:16:18.200Z,98818.25
2023-01-19T16:18:45.912Z,98831.78
2023-01-19T16:21:13.443Z,98837.63
2023-01-19T16:23:40.760Z,98835.81
2023-01-19T16:26:26.599Z,98837.78
2023-01-19T16:28:57.240Z,98854.13
2023-01-19T16:31:25.045Z,98849.84
2023-01-19T16:33:53.658Z,98864.56
2023-01-19T16:36:28.453Z,98878.84
2023-01-19T16:39:01.945Z,98869.53
2023-01-19T16:41:29.617Z,98871.56
2023-01-19T16:43:58.444Z,98861.56
2023-01-19T16:46:28.129Z,98873.13
2023-01-19T16:49:00.860Z,98885.19
2023-01-19T16:51:28.803Z,98895.22
2023-01-19T16:53:56.120Z,98907.41
2023-01-19T16:56:23.927Z,98898.03
2023-01-19T16:58:56.339Z,98905.28
2023-01-19T17:01:25.544Z,98912.97
2023-01-19T17:03:53.307Z,98907.22
2023-01-19T17:06:22.939Z,98920.88
2023-01-19T17:08:51.791Z,98920.94
2023-01-19T17:11:22.934Z,98924.22
2023-01-19T17:13:54.548Z,98921.84
2023-01-19T17:16:24.009Z,98929.25
2023-01-19T17:18:51.845Z,98937.28
2023-01-19T17:21:20.296Z,98945.53
2023-01-19T17:23:49.394Z,98957.75
2023-01-19T17:26:18.207Z,98936.66
2023-01-19T17:28:46.013Z,98943.91
2023-01-19T17:31:20.089Z,98949.19
2023-01-19T17:33:48.781Z,98934.84
2023-01-19T17:36:22.638Z,98926.09
2023-01-19T17:38:50.560Z,98931.63
2023-01-19T17:41:25.159Z,98937.25
2023-01-19T17:43:53.052Z,98936.50
2023-01-19T17:46:22.921Z,98936.50
2023-01-19T17:49:01.840Z,98931.56
2023-01-19T17:51:30.429Z,98928.88
2023-01-19T17:53:58.122Z,98934.50
2023-01-19T17:56:30.028Z,98925.53
2023-01-19T17:58:58.450Z,98931.06
2023-01-19T18:01:31.383Z,98930.81
2023-01-19T18:04:02.693Z,98919.97
2023-01-19T18:06:30.521Z,98938.53
2023-01-19T18:08:59.413Z,98946.41
2023-01-19T18:11:27.565Z,98936.84
2023-01-19T18:13:55.882Z,98954.78
2023-01-19T18:16:26.183Z,98968.81
2023-01-19T18:18:54.930Z,98974.34
2023-01-19T18:21:23.985Z,98979.53
2023-01-19T18:23:51.367Z,98976.59
2023-01-19T18:26:22.111Z,98969.56
2023-01-19T18:28:50.005Z,98970.66
2023-01-19T18:31:19.739Z,98981.66
2023-01-19T18:33:50.171Z,98975.19
2023-01-19T18:36:18.134Z,98979.25
2023-01-19T18:38:45.533Z,98987.28
2023-01-19T18:41:15.331Z,98983.66
2023-01-19T18:43:43.192Z,98977.25
2023-01-19T18:46:11.642Z,98974.09
2023-01-19T18:48:40.119Z,98972.78
2023-01-19T18:51:12.958Z,98973.88
2023-01-19T18:53:41.108Z,98970.88
2023-01-19T18:56:12.113Z,98983.69
2023-01-19T18:58:40.372Z,99001.41
2023-01-19T19:01:30.775Z,99006.66
2023-01-19T19:03:59.857Z,99002.13
2023-01-19T19:06:30.518Z,98996.66
2023-01-19T19:08:59.428Z,98992.97
2023-01-19T19:11:27.773Z,98998.38
2023-01-19T19:14:00.232Z,98987.22
2023-01-19T19:16:29.855Z,98997.22
2023-01-19T19:18:57.246Z,99016.75
2023-01-19T19:21:25.620Z,99012.81
2023-01-19T19:23:57.351Z,99006.53
2023-01-19T19:26:28.160Z,98992.84
2023-01-19T19:28:55.723Z,98998.88
2023-01-19T19:31:26.793Z,98992.56
2023-01-19T19:33:55.822Z,98984.22
2023-01-19T19:36:24.665Z,98983.66
2023-01-19T19:38:52.265Z,98991.16
2023-01-19T19:41:27.170Z,99001.56
2023-01-19T19:43:55.370Z,98995.38
2023-01-19T19:46:25.334Z,98998.88
2023-01-19T19:48:54.302Z,98999.25
2023-01-19T19:51:27.259Z,99010.66
2023-01-19T19:53:59.831Z,99004.66
2023-01-19T19:56:30.289Z,98998.88
2023-01-19T19:58:59.329Z,98975.34
2023-01-19T20:01:32.520Z,98977.00
2023-01-19T20:04:07.432Z,98980.78
2023-01-19T20:06:38.965Z,98968.34
2023-01-19T20:09:09.338Z,98985.84
2023-01-19T20:11:37.292Z,98985.84
2023-01-19T20:14:09.587Z,98980.94
2023-01-19T20:16:37.968Z,98993.28
2023-01-19T20:19:05.522Z,98992.84
2023-01-19T20:21:37.830Z,98986.69
2023-01-19T20:24:08.727Z,98982.03
2023-01-19T20:26:41.421Z,99004.09
2023-01-19T20:29:11.930Z,99002.72
2023-01-19T20:31:48.073Z,99004.72
2023-01-19T20:34:17.673Z,99020.28
2023-01-19T20:36:49.696Z,99022.78
2023-01-19T20:39:20.241Z,99006.53
2023-01-19T20:41:51.001Z,99002.19
2023-01-19T20:44:22.737Z,99005.16
2023-01-19T20:46:51.159Z,99011.44
2023-01-19T20:49:19.337Z,98997.22
2023-01-19T20:51:47.141Z,98985.22
2023-01-19T20:54:18.077Z,98996.34
2023-01-19T20:56:45.880Z,98986.38
2023-01-19T20:59:13.231Z,98963.59
2023-01-19T21:01:41.721Z,98967.28
2023-01-19T21:04:10.123Z,98975.56
2023-01-19T21:06:38.704Z,98968.31
2023-01-19T21:09:07.497Z,98959.84
2023-01-19T21:11:37.117Z,98957.00
2023-01-19T21:14:05.679Z,98960.03
2023-01-19T21:16:34.998Z,98961.44
2023-01-19T21:19:03.108Z,98957.22
2023-01-19T21:21:31.986Z,98966.16
2023-01-19T21:24:01.837Z,98970.41
2023-01-19T21:26:30.750Z,98967.72
2023-01-19T21:28:58.850Z,98968.84
2023-01-19T21:31:27.972Z,98956.34
2023-01-19T21:33:58.793Z,98973.91
2023-01-19T21:36:27.345Z,98967.66
2023-01-19T21:39:00.867Z,98963.66
2023-01-19T21:41:30.368Z,98950.88
2023-01-19T21:44:00.920Z,98942.56
2023-01-19T21:46:29.746Z,98948.63
2023-01-19T21:49:01.594Z,98950.69
2023-01-19T21:51:33.697Z,98948.75
2023-01-19T21:54:02.090Z,98927.13
2023-01-19T21:56:30.704Z,98926.78
2023-01-19T21:58:59.564Z,98913.53
2023-01-19T22:01:27.169Z,98925.38
2023-01-19T22:03:56.461Z,98933.97
2023-01-19T22:06:25.086Z,98925.31
2023-01-19T22:08:52.315Z,98915.50
2023-01-19T22:11:21.593Z,98913.84
2023-01-19T22:13:48.813Z,98913.00
2023-01-19T22:16:19.121Z,98920.38
2023-01-19T22:18:51.308Z,98921.75
2023-01-19T22:21:24.105Z,98934.47
2023-01-19T22:23:54.107Z,98938.44
2023-01-19T22:26:21.965Z,98932.63
2023-01-19T22:28:53.673Z,98944.09
2023-01-19T22:31:22.088Z,98937.38
2023-01-19T22:33:51.064Z,98920.84
2023-01-19T22:36:27.117Z,98922.34
2023-01-19T22:38:56.293Z,98917.28
2023-01-19T22:41:27.838Z,98913.13
2023-01-19T22:43:57.489Z,98902.88
2023-01-19T22:46:30.743Z,98913.19
2023-01-19T22:48:58.545Z,98905.31
2023-01-19T22:51:27.005Z,98907.09
2023-01-19T22:53:54.166Z,98901.50
2023-01-19T22:56:29.929Z,98894.41
2023-01-19T22:58:58.348Z,98899.28
2023-01-19T23:01:30.806Z,98895.13
2023-01-19T23:03:58.165Z,98892.63
2023-01-19T23:06:28.326Z,98887.66
2023-01-19T23:08:58.422Z,98880.22
2023-01-19T23:11:30.357Z,98870.91
2023-01-19T23:13:58.564Z,98878.03
2023-01-19T23:16:26.341Z,98879.09
2023-01-19T23:18:58.563Z,98876.00
2023-01-19T23:21:28.848Z,98878.84
2023-01-19T23:23:58.890Z,98875.06
2023-01-19T23:26:27.251Z,98865.56
2023-01-19T23:29:05.709Z,98866.13
2023-01-19T23:31:35.948Z,98869.59
2023-01-19T23:34:06.379Z,98863.28
2023-01-19T23:36:35.850Z,98863.19
2023-01-19T23:39:11.033Z,98851.28
2023-01-19T23:41:38.452Z,98853.31
2023-01-19T23:44:07.988Z,98843.13
2023-01-19T23:46:35.651Z,98856.69
2023-01-19T23:49:02.884Z,98855.44
2023-01-19T23:51:32.172Z,98867.47
2023-01-19T23:54:00.455Z,98863.56
2023-01-19T23:56:30.921Z,98863.03
2023-01-19T23:59:19.434Z,98873.25
